sensor_id;sensor_type;location;lat;lon;timestamp;P1;durP1;ratioP1;P2;durP2;ratioP2
48859;SDS011;34679;51.436;-2.518;2022-09-09T00:00:20;19.52;;;9.98;;
48859;SDS011;34679;51.436;-2.518;2022-09-09T00:02:49;15.98;;;9.18;;
48859;SDS011;34679;51.436;-2.518;2022-09-09T00:08:11;14.25;;;8.63;;
48859;SDS011;34679;51.436;-2.518;2022-09-09T00:10:58;19.42;;;9.73;;
48859;SDS011;34679;51.436;-2.518;2022-09-09T00:16:25;17.80;;;8.82;;
48859;SDS011;34679;51.436;-2.518;2022-09-09T00:24:43;17.80;;;9.15;;
48859;SDS011;34679;51.436;-2.518;2022-09-09T00:27:13;13.35;;;9.05;;
48859;SDS011;34679;51.436;-2.518;2022-09-09T00:29:53;17.77;;;7.70;;
48859;SDS011;34679;51.436;-2.518;2022-09-09T00:32:24;14.05;;;7.13;;
48859;SDS011;34679;51.436;-2.518;2022-09-09T00:34:55;14.77;;;8.00;;
48859;SDS011;34679;51.436;-2.518;2022-09-09T00:37:24;14.50;;;5.95;;
48859;SDS011;34679;51.436;-2.518;2022-09-09T00:39:51;12.43;;;5.72;;
48859;SDS011;34679;51.436;-2.518;2022-09-09T00:42:25;13.93;;;5.50;;
48859;SDS011;34679;51.436;-2.518;2022-09-09T00:45:02;9.15;;;5.57;;
48859;SDS011;34679;51.436;-2.518;2022-09-09T00:47:46;7.32;;;5.10;;
48859;SDS011;34679;51.436;-2.518;2022-09-09T00:53:09;9.18;;;4.15;;
48859;SDS011;34679;51.436;-2.518;2022-09-09T00:58:33;9.52;;;4.03;;
48859;SDS011;34679;51.436;-2.518;2022-09-09T01:01:04;8.40;;;3.78;;
48859;SDS011;34679;51.436;-2.518;2022-09-09T01:03:37;5.50;;;2.83;;
48859;SDS011;34679;51.436;-2.518;2022-09-09T01:14:16;10.07;;;2.90;;
48859;SDS011;34679;51.436;-2.518;2022-09-09T01:28:47;12.18;;;3.45;;
48859;SDS011;34679;51.436;-2.518;2022-09-09T01:31:18;7.40;;;3.08;;
48859;SDS011;34679;51.436;-2.518;2022-09-09T01:34:11;6.20;;;2.90;;
48859;SDS011;34679;51.436;-2.518;2022-09-09T01:36:38;8.68;;;3.30;;
48859;SDS011;34679;51.436;-2.518;2022-09-09T01:39:16;9.25;;;2.70;;
48859;SDS011;34679;51.436;-2.518;2022-09-09T01:41:42;4.40;;;2.83;;
48859;SDS011;34679;51.436;-2.518;2022-09-09T01:44:08;8.73;;;3.03;;
48859;SDS011;34679;51.436;-2.518;2022-09-09T01:46:34;7.50;;;2.95;;
48859;SDS011;34679;51.436;-2.518;2022-09-09T01:49:00;7.28;;;2.85;;
48859;SDS011;34679;51.436;-2.518;2022-09-09T01:51:29;5.68;;;2.70;;
48859;SDS011;34679;51.436;-2.518;2022-09-09T01:53:55;13.13;;;3.42;;
48859;SDS011;34679;51.436;-2.518;2022-09-09T01:56:28;6.25;;;3.03;;
48859;SDS011;34679;51.436;-2.518;2022-09-09T01:59:11;5.45;;;2.63;;
48859;SDS011;34679;51.436;-2.518;2022-09-09T02:02:47;11.20;;;2.75;;
48859;SDS011;34679;51.436;-2.518;2022-09-09T02:07:48;4.68;;;2.22;;
48859;SDS011;34679;51.436;-2.518;2022-09-09T02:12:55;7.53;;;2.33;;
48859;SDS011;34679;51.436;-2.518;2022-09-09T02:18:44;3.88;;;2.00;;
48859;SDS011;34679;51.436;-2.518;2022-09-09T02:21:31;7.15;;;2.13;;
48859;SDS011;34679;51.436;-2.518;2022-09-09T02:23:58;3.13;;;2.00;;
48859;SDS011;34679;51.436;-2.518;2022-09-09T02:26:29;8.45;;;2.10;;
48859;SDS011;34679;51.436;-2.518;2022-09-09T02:28:58;9.43;;;3.55;;
48859;SDS011;34679;51.436;-2.518;2022-09-09T02:31:26;9.23;;;2.50;;
48859;SDS011;34679;51.436;-2.518;2022-09-09T02:33:54;9.05;;;2.17;;
48859;SDS011;34679;51.436;-2.518;2022-09-09T02:36:24;3.92;;;2.35;;
48859;SDS011;34679;51.436;-2.518;2022-09-09T02:38:52;7.13;;;1.92;;
48859;SDS011;34679;51.436;-2.518;2022-09-09T02:41:38;6.40;;;1.77;;
48859;SDS011;34679;51.436;-2.518;2022-09-09T02:44:08;7.95;;;2.30;;
48859;SDS011;34679;51.436;-2.518;2022-09-09T02:46:56;7.63;;;2.42;;
48859;SDS011;34679;51.436;-2.518;2022-09-09T02:49:49;3.25;;;1.98;;
48859;SDS011;34679;51.436;-2.518;2022-09-09T02:52:38;7.53;;;2.33;;
48859;SDS011;34679;51.436;-2.518;2022-09-09T02:55:23;6.38;;;2.10;;
48859;SDS011;34679;51.436;-2.518;2022-09-09T02:58:00;6.78;;;1.85;;
48859;SDS011;34679;51.436;-2.518;2022-09-09T03:00:31;3.08;;;1.85;;
48859;SDS011;34679;51.436;-2.518;2022-09-09T03:02:57;4.35;;;2.10;;
48859;SDS011;34679;51.436;-2.518;2022-09-09T03:05:24;4.43;;;1.90;;
48859;SDS011;34679;51.436;-2.518;2022-09-09T03:07:50;6.50;;;2.00;;
48859;SDS011;34679;51.436;-2.518;2022-09-09T03:10:16;2.38;;;1.92;;
48859;SDS011;34679;51.436;-2.518;2022-09-09T03:12:42;2.67;;;1.73;;
48859;SDS011;34679;51.436;-2.518;2022-09-09T03:15:08;7.18;;;2.00;;
48859;SDS011;34679;51.436;-2.518;2022-09-09T03:17:35;8.23;;;2.63;;
48859;SDS011;34679;51.436;-2.518;2022-09-09T03:20:02;6.72;;;1.88;;
48859;SDS011;34679;51.436;-2.518;2022-09-09T03:22:30;7.05;;;2.30;;
48859;SDS011;34679;51.436;-2.518;2022-09-09T03:24:56;9.88;;;2.80;;
48859;SDS011;34679;51.436;-2.518;2022-09-09T03:27:21;6.13;;;2.13;;
48859;SDS011;34679;51.436;-2.518;2022-09-09T03:29:47;6.25;;;1.73;;
48859;SDS011;34679;51.436;-2.518;2022-09-09T03:32:16;10.23;;;2.00;;
48859;SDS011;34679;51.436;-2.518;2022-09-09T03:34:42;3.97;;;2.58;;
48859;SDS011;34679;51.436;-2.518;2022-09-09T03:37:09;7.47;;;2.10;;
48859;SDS011;34679;51.436;-2.518;2022-09-09T03:39:35;3.90;;;1.80;;
48859;SDS011;34679;51.436;-2.518;2022-09-09T03:42:00;3.67;;;1.85;;
48859;SDS011;34679;51.436;-2.518;2022-09-09T03:44:30;6.38;;;1.77;;
48859;SDS011;34679;51.436;-2.518;2022-09-09T03:46:56;3.78;;;2.17;;
48859;SDS011;34679;51.436;-2.518;2022-09-09T03:49:26;8.32;;;2.20;;
48859;SDS011;34679;51.436;-2.518;2022-09-09T03:51:56;5.93;;;2.45;;
48859;SDS011;34679;51.436;-2.518;2022-09-09T03:54:25;4.45;;;2.33;;
48859;SDS011;34679;51.436;-2.518;2022-09-09T03:56:51;5.97;;;2.30;;
48859;SDS011;34679;51.436;-2.518;2022-09-09T03:59:17;8.07;;;2.53;;
48859;SDS011;34679;51.436;-2.518;2022-09-09T04:01:42;2.97;;;2.05;;
48859;SDS011;34679;51.436;-2.518;2022-09-09T04:04:08;8.02;;;2.00;;
48859;SDS011;34679;51.436;-2.518;2022-09-09T04:06:34;4.38;;;1.92;;
48859;SDS011;34679;51.436;-2.518;2022-09-09T04:09:00;7.43;;;2.40;;
48859;SDS011;34679;51.436;-2.518;2022-09-09T04:11:28;3.30;;;2.05;;
48859;SDS011;34679;51.436;-2.518;2022-09-09T04:13:54;4.18;;;1.88;;
48859;SDS011;34679;51.436;-2.518;2022-09-09T04:16:19;5.97;;;2.22;;
48859;SDS011;34679;51.436;-2.518;2022-09-09T04:18:45;8.65;;;2.63;;
48859;SDS011;34679;51.436;-2.518;2022-09-09T04:21:11;4.85;;;2.10;;
48859;SDS011;34679;51.436;-2.518;2022-09-09T04:23:37;8.27;;;2.13;;
48859;SDS011;34679;51.436;-2.518;2022-09-09T04:26:04;6.47;;;1.90;;
48859;SDS011;34679;51.436;-2.518;2022-09-09T04:28:31;5.35;;;1.70;;
48859;SDS011;34679;51.436;-2.518;2022-09-09T04:31:09;9.18;;;2.17;;
48859;SDS011;34679;51.436;-2.518;2022-09-09T04:33:39;6.03;;;2.00;;
48859;SDS011;34679;51.436;-2.518;2022-09-09T04:36:05;6.85;;;1.67;;
48859;SDS011;34679;51.436;-2.518;2022-09-09T04:38:31;6.97;;;1.95;;
48859;SDS011;34679;51.436;-2.518;2022-09-09T04:40:57;5.43;;;1.58;;
48859;SDS011;34679;51.436;-2.518;2022-09-09T04:43:23;3.80;;;2.10;;
48859;SDS011;34679;51.436;-2.518;2022-09-09T04:45:51;3.45;;;1.52;;
48859;SDS011;34679;51.436;-2.518;2022-09-09T04:48:17;4.97;;;1.50;;
48859;SDS011;34679;51.436;-2.518;2022-09-09T04:50:43;8.45;;;2.42;;
48859;SDS011;34679;51.436;-2.518;2022-09-09T04:53:08;4.75;;;1.52;;
48859;SDS011;34679;51.436;-2.518;2022-09-09T04:55:34;8.55;;;1.73;;
48859;SDS011;34679;51.436;-2.518;2022-09-09T04:58:04;5.07;;;1.75;;
48859;SDS011;34679;51.436;-2.518;2022-09-09T05:00:30;6.60;;;2.00;;
48859;SDS011;34679;51.436;-2.518;2022-09-09T05:02:57;6.00;;;1.50;;
48859;SDS011;34679;51.436;-2.518;2022-09-09T05:05:23;5.75;;;1.42;;
48859;SDS011;34679;51.436;-2.518;2022-09-09T05:07:48;6.40;;;1.38;;
48859;SDS011;34679;51.436;-2.518;2022-09-09T05:10:14;5.15;;;1.52;;
48859;SDS011;34679;51.436;-2.518;2022-09-09T05:12:41;6.55;;;1.40;;
48859;SDS011;34679;51.436;-2.518;2022-09-09T05:15:07;5.00;;;1.30;;
48859;SDS011;34679;51.436;-2.518;2022-09-09T05:17:34;4.90;;;1.42;;
48859;SDS011;34679;51.436;-2.518;2022-09-09T05:20:00;4.95;;;1.20;;
48859;SDS011;34679;51.436;-2.518;2022-09-09T05:22:27;5.38;;;1.58;;
48859;SDS011;34679;51.436;-2.518;2022-09-09T05:24:53;10.63;;;1.27;;
48859;SDS011;34679;51.436;-2.518;2022-09-09T05:27:19;5.70;;;1.65;;
48859;SDS011;34679;51.436;-2.518;2022-09-09T05:29:45;7.18;;;1.45;;
48859;SDS011;34679;51.436;-2.518;2022-09-09T05:32:11;6.22;;;1.30;;
48859;SDS011;34679;51.436;-2.518;2022-09-09T05:34:38;5.93;;;1.70;;
48859;SDS011;34679;51.436;-2.518;2022-09-09T05:37:04;5.78;;;1.60;;
48859;SDS011;34679;51.436;-2.518;2022-09-09T05:39:30;10.10;;;1.75;;
48859;SDS011;34679;51.436;-2.518;2022-09-09T05:41:57;5.90;;;1.42;;
48859;SDS011;34679;51.436;-2.518;2022-09-09T05:44:23;4.63;;;1.52;;
48859;SDS011;34679;51.436;-2.518;2022-09-09T05:46:52;8.00;;;1.65;;
48859;SDS011;34679;51.436;-2.518;2022-09-09T05:49:19;5.43;;;1.30;;
48859;SDS011;34679;51.436;-2.518;2022-09-09T05:51:45;6.40;;;1.35;;
48859;SDS011;34679;51.436;-2.518;2022-09-09T05:54:11;3.65;;;1.58;;
48859;SDS011;34679;51.436;-2.518;2022-09-09T05:56:40;3.67;;;1.23;;
48859;SDS011;34679;51.436;-2.518;2022-09-09T05:59:06;7.47;;;1.02;;
48859;SDS011;34679;51.436;-2.518;2022-09-09T06:01:32;3.30;;;1.00;;
48859;SDS011;34679;51.436;-2.518;2022-09-09T06:04:00;6.38;;;0.88;;
48859;SDS011;34679;51.436;-2.518;2022-09-09T06:06:35;11.45;;;1.02;;
48859;SDS011;34679;51.436;-2.518;2022-09-09T06:09:04;9.52;;;1.30;;
48859;SDS011;34679;51.436;-2.518;2022-09-09T06:11:31;5.07;;;1.08;;
48859;SDS011;34679;51.436;-2.518;2022-09-09T06:13:59;5.90;;;1.00;;
48859;SDS011;34679;51.436;-2.518;2022-09-09T06:16:26;6.97;;;1.27;;
48859;SDS011;34679;51.436;-2.518;2022-09-09T06:18:53;2.90;;;1.10;;
48859;SDS011;34679;51.436;-2.518;2022-09-09T06:21:27;4.38;;;1.05;;
48859;SDS011;34679;51.436;-2.518;2022-09-09T06:23:55;2.15;;;0.90;;
48859;SDS011;34679;51.436;-2.518;2022-09-09T06:26:24;4.85;;;0.90;;
48859;SDS011;34679;51.436;-2.518;2022-09-09T06:28:53;6.25;;;1.27;;
48859;SDS011;34679;51.436;-2.518;2022-09-09T06:31:20;3.97;;;1.10;;
48859;SDS011;34679;51.436;-2.518;2022-09-09T06:33:48;8.70;;;1.40;;
48859;SDS011;34679;51.436;-2.518;2022-09-09T06:36:16;3.03;;;1.08;;
48859;SDS011;34679;51.436;-2.518;2022-09-09T06:38:47;3.25;;;1.27;;
48859;SDS011;34679;51.436;-2.518;2022-09-09T06:41:13;2.17;;;1.23;;
48859;SDS011;34679;51.436;-2.518;2022-09-09T06:43:41;3.40;;;0.90;;
48859;SDS011;34679;51.436;-2.518;2022-09-09T06:46:14;6.63;;;1.20;;
48859;SDS011;34679;51.436;-2.518;2022-09-09T06:48:42;6.85;;;1.65;;
48859;SDS011;34679;51.436;-2.518;2022-09-09T06:53:43;7.43;;;1.50;;
48859;SDS011;34679;51.436;-2.518;2022-09-09T06:58:36;5.82;;;1.10;;
48859;SDS011;34679;51.436;-2.518;2022-09-09T07:01:06;7.03;;;1.80;;
48859;SDS011;34679;51.436;-2.518;2022-09-09T07:03:32;4.40;;;1.30;;
48859;SDS011;34679;51.436;-2.518;2022-09-09T07:05:58;9.38;;;1.80;;
48859;SDS011;34679;51.436;-2.518;2022-09-09T07:08:25;3.20;;;1.05;;
48859;SDS011;34679;51.436;-2.518;2022-09-09T07:10:51;3.50;;;1.02;;
48859;SDS011;34679;51.436;-2.518;2022-09-09T07:13:26;7.93;;;1.48;;
48859;SDS011;34679;51.436;-2.518;2022-09-09T07:15:52;7.03;;;1.35;;
48859;SDS011;34679;51.436;-2.518;2022-09-09T07:18:18;6.97;;;1.75;;
48859;SDS011;34679;51.436;-2.518;2022-09-09T07:20:54;4.40;;;1.40;;
48859;SDS011;34679;51.436;-2.518;2022-09-09T07:23:21;6.15;;;1.70;;
48859;SDS011;34679;51.436;-2.518;2022-09-09T07:25:47;6.95;;;1.42;;
48859;SDS011;34679;51.436;-2.518;2022-09-09T07:28:13;6.22;;;1.50;;
48859;SDS011;34679;51.436;-2.518;2022-09-09T07:30:39;6.72;;;1.40;;
48859;SDS011;34679;51.436;-2.518;2022-09-09T07:33:05;7.63;;;1.27;;
48859;SDS011;34679;51.436;-2.518;2022-09-09T07:35:31;4.80;;;1.23;;
48859;SDS011;34679;51.436;-2.518;2022-09-09T07:37:57;7.18;;;1.25;;
48859;SDS011;34679;51.436;-2.518;2022-09-09T07:40:23;6.18;;;1.10;;
48859;SDS011;34679;51.436;-2.518;2022-09-09T07:42:49;4.65;;;1.50;;
48859;SDS011;34679;51.436;-2.518;2022-09-09T07:45:15;6.38;;;1.48;;
48859;SDS011;34679;51.436;-2.518;2022-09-09T07:47:41;5.82;;;1.17;;
48859;SDS011;34679;51.436;-2.518;2022-09-09T07:50:08;2.97;;;1.15;;
48859;SDS011;34679;51.436;-2.518;2022-09-09T07:52:34;5.57;;;1.30;;
48859;SDS011;34679;51.436;-2.518;2022-09-09T07:55:00;9.55;;;1.38;;
48859;SDS011;34679;51.436;-2.518;2022-09-09T07:57:28;8.80;;;1.17;;
48859;SDS011;34679;51.436;-2.518;2022-09-09T07:59:55;6.32;;;1.98;;
48859;SDS011;34679;51.436;-2.518;2022-09-09T08:02:22;2.45;;;1.05;;
48859;SDS011;34679;51.436;-2.518;2022-09-09T08:04:48;2.47;;;1.10;;
48859;SDS011;34679;51.436;-2.518;2022-09-09T08:07:14;2.70;;;0.80;;
48859;SDS011;34679;51.436;-2.518;2022-09-09T08:09:41;3.75;;;1.00;;
48859;SDS011;34679;51.436;-2.518;2022-09-09T08:12:06;5.50;;;1.30;;
48859;SDS011;34679;51.436;-2.518;2022-09-09T08:14:33;2.20;;;0.98;;
48859;SDS011;34679;51.436;-2.518;2022-09-09T08:16:59;4.75;;;0.98;;
48859;SDS011;34679;51.436;-2.518;2022-09-09T08:19:24;5.57;;;1.45;;
48859;SDS011;34679;51.436;-2.518;2022-09-09T08:21:50;4.03;;;1.00;;
48859;SDS011;34679;51.436;-2.518;2022-09-09T08:24:16;2.67;;;0.77;;
48859;SDS011;34679;51.436;-2.518;2022-09-09T08:26:42;5.55;;;0.82;;
48859;SDS011;34679;51.436;-2.518;2022-09-09T08:29:10;1.70;;;0.90;;
48859;SDS011;34679;51.436;-2.518;2022-09-09T08:31:39;3.50;;;1.00;;
48859;SDS011;34679;51.436;-2.518;2022-09-09T08:34:07;3.05;;;0.93;;
48859;SDS011;34679;51.436;-2.518;2022-09-09T08:36:35;3.28;;;0.90;;
48859;SDS011;34679;51.436;-2.518;2022-09-09T08:39:03;2.75;;;0.60;;
48859;SDS011;34679;51.436;-2.518;2022-09-09T08:41:37;5.10;;;0.82;;
48859;SDS011;34679;51.436;-2.518;2022-09-09T08:44:14;2.65;;;0.60;;
48859;SDS011;34679;51.436;-2.518;2022-09-09T08:47:00;4.63;;;0.80;;
48859;SDS011;34679;51.436;-2.518;2022-09-09T08:52:55;1.42;;;0.45;;
48859;SDS011;34679;51.436;-2.518;2022-09-09T08:58:30;2.00;;;0.68;;
48859;SDS011;34679;51.436;-2.518;2022-09-09T09:09:08;2.08;;;0.63;;
48859;SDS011;34679;51.436;-2.518;2022-09-09T09:11:48;1.50;;;0.67;;
48859;SDS011;34679;51.436;-2.518;2022-09-09T09:14:22;1.67;;;0.60;;
48859;SDS011;34679;51.436;-2.518;2022-09-09T09:19:26;3.33;;;0.88;;
48859;SDS011;34679;51.436;-2.518;2022-09-09T09:27:15;1.63;;;0.70;;
48859;SDS011;34679;51.436;-2.518;2022-09-09T09:29:46;3.13;;;0.60;;
48859;SDS011;34679;51.436;-2.518;2022-09-09T09:32:16;2.20;;;0.90;;
48859;SDS011;34679;51.436;-2.518;2022-09-09T09:34:49;2.53;;;0.57;;
48859;SDS011;34679;51.436;-2.518;2022-09-09T09:37:19;2.50;;;1.23;;
48859;SDS011;34679;51.436;-2.518;2022-09-09T09:39:52;3.00;;;0.63;;
48859;SDS011;34679;51.436;-2.518;2022-09-09T09:42:18;2.40;;;0.63;;
48859;SDS011;34679;51.436;-2.518;2022-09-09T09:44:44;3.17;;;0.70;;
48859;SDS011;34679;51.436;-2.518;2022-09-09T09:47:17;3.13;;;0.85;;
48859;SDS011;34679;51.436;-2.518;2022-09-09T09:49:51;3.00;;;0.77;;
48859;SDS011;34679;51.436;-2.518;2022-09-09T09:52:21;2.22;;;0.75;;
48859;SDS011;34679;51.436;-2.518;2022-09-09T09:54:49;5.47;;;0.90;;
48859;SDS011;34679;51.436;-2.518;2022-09-09T09:57:16;3.72;;;1.13;;
48859;SDS011;34679;51.436;-2.518;2022-09-09T09:59:44;1.45;;;0.60;;
48859;SDS011;34679;51.436;-2.518;2022-09-09T10:02:15;3.25;;;0.85;;
48859;SDS011;34679;51.436;-2.518;2022-09-09T10:04:59;3.20;;;0.75;;
48859;SDS011;34679;51.436;-2.518;2022-09-09T10:07:27;2.40;;;0.90;;
48859;SDS011;34679;51.436;-2.518;2022-09-09T10:09:55;2.22;;;0.85;;
48859;SDS011;34679;51.436;-2.518;2022-09-09T10:12:39;5.20;;;0.85;;
48859;SDS011;34679;51.436;-2.518;2022-09-09T10:42:51;2.20;;;0.68;;
48859;SDS011;34679;51.436;-2.518;2022-09-09T10:45:26;2.28;;;0.90;;
48859;SDS011;34679;51.436;-2.518;2022-09-09T10:51:02;1.63;;;0.68;;
48859;SDS011;34679;51.436;-2.518;2022-09-09T10:56:36;1.35;;;0.90;;
48859;SDS011;34679;51.436;-2.518;2022-09-09T10:59:14;4.20;;;0.85;;
48859;SDS011;34679;51.436;-2.518;2022-09-09T11:02:01;3.67;;;0.85;;
48859;SDS011;34679;51.436;-2.518;2022-09-09T11:07:10;1.48;;;0.70;;
48859;SDS011;34679;51.436;-2.518;2022-09-09T11:09:47;2.95;;;0.95;;
48859;SDS011;34679;51.436;-2.518;2022-09-09T11:12:20;5.65;;;0.95;;
48859;SDS011;34679;51.436;-2.518;2022-09-09T11:14:50;2.05;;;0.80;;
48859;SDS011;34679;51.436;-2.518;2022-09-09T11:17:33;2.47;;;0.95;;
48859;SDS011;34679;51.436;-2.518;2022-09-09T11:20:06;6.38;;;1.00;;
48859;SDS011;34679;51.436;-2.518;2022-09-09T11:22:43;3.90;;;0.93;;
48859;SDS011;34679;51.436;-2.518;2022-09-09T11:25:26;3.25;;;1.00;;
48859;SDS011;34679;51.436;-2.518;2022-09-09T11:36:34;1.88;;;0.82;;
48859;SDS011;34679;51.436;-2.518;2022-09-09T11:42:05;1.45;;;0.80;;
48859;SDS011;34679;51.436;-2.518;2022-09-09T11:44:41;1.52;;;0.63;;
48859;SDS011;34679;51.436;-2.518;2022-09-09T11:47:27;1.35;;;0.88;;
48859;SDS011;34679;51.436;-2.518;2022-09-09T11:50:40;2.53;;;0.70;;
48859;SDS011;34679;51.436;-2.518;2022-09-09T11:52:44;1.75;;;0.80;;
48859;SDS011;34679;51.436;-2.518;2022-09-09T11:55:31;3.40;;;0.60;;
48859;SDS011;34679;51.436;-2.518;2022-09-09T11:57:59;1.73;;;0.93;;
48859;SDS011;34679;51.436;-2.518;2022-09-09T12:03:30;1.17;;;0.98;;
48859;SDS011;34679;51.436;-2.518;2022-09-09T12:06:20;4.40;;;1.27;;
48859;SDS011;34679;51.436;-2.518;2022-09-09T12:09:08;1.85;;;0.90;;
48859;SDS011;34679;51.436;-2.518;2022-09-09T12:11:51;4.32;;;0.95;;
48859;SDS011;34679;51.436;-2.518;2022-09-09T12:14:34;2.00;;;1.15;;
48859;SDS011;34679;51.436;-2.518;2022-09-09T12:19:45;4.30;;;1.27;;
48859;SDS011;34679;51.436;-2.518;2022-09-09T12:30:12;3.28;;;1.20;;
48859;SDS011;34679;51.436;-2.518;2022-09-09T12:32:40;5.18;;;1.52;;
48859;SDS011;34679;51.436;-2.518;2022-09-09T12:35:10;1.95;;;1.00;;
48859;SDS011;34679;51.436;-2.518;2022-09-09T12:37:41;4.18;;;1.05;;
48859;SDS011;34679;51.436;-2.518;2022-09-09T12:40:30;2.33;;;1.30;;
48859;SDS011;34679;51.436;-2.518;2022-09-09T12:43:00;5.85;;;1.00;;
48859;SDS011;34679;51.436;-2.518;2022-09-09T12:45:28;3.75;;;1.10;;
48859;SDS011;34679;51.436;-2.518;2022-09-09T12:48:06;2.58;;;1.10;;
48859;SDS011;34679;51.436;-2.518;2022-09-09T12:50:58;5.88;;;1.00;;
48859;SDS011;34679;51.436;-2.518;2022-09-09T12:56:00;7.05;;;1.17;;
48859;SDS011;34679;51.436;-2.518;2022-09-09T12:58:29;1.83;;;0.90;;
48859;SDS011;34679;51.436;-2.518;2022-09-09T13:00:59;2.30;;;0.90;;
48859;SDS011;34679;51.436;-2.518;2022-09-09T13:03:28;3.95;;;1.08;;
48859;SDS011;34679;51.436;-2.518;2022-09-09T13:05:56;2.42;;;0.95;;
48859;SDS011;34679;51.436;-2.518;2022-09-09T13:08:25;1.75;;;1.00;;
48859;SDS011;34679;51.436;-2.518;2022-09-09T13:11:01;3.47;;;0.80;;
48859;SDS011;34679;51.436;-2.518;2022-09-09T13:13:34;3.13;;;0.82;;
48859;SDS011;34679;51.436;-2.518;2022-09-09T13:16:05;5.45;;;1.35;;
48859;SDS011;34679;51.436;-2.518;2022-09-09T13:18:43;3.30;;;1.10;;
48859;SDS011;34679;51.436;-2.518;2022-09-09T13:21:09;3.42;;;1.38;;
48859;SDS011;34679;51.436;-2.518;2022-09-09T13:23:35;3.25;;;1.40;;
48859;SDS011;34679;51.436;-2.518;2022-09-09T13:26:03;6.68;;;1.67;;
48859;SDS011;34679;51.436;-2.518;2022-09-09T13:28:32;3.85;;;1.25;;
48859;SDS011;34679;51.436;-2.518;2022-09-09T13:31:03;6.32;;;1.60;;
48859;SDS011;34679;51.436;-2.518;2022-09-09T13:38:29;2.70;;;1.48;;
48859;SDS011;34679;51.436;-2.518;2022-09-09T13:40:58;3.72;;;1.27;;
48859;SDS011;34679;51.436;-2.518;2022-09-09T13:43:28;4.15;;;1.92;;
48859;SDS011;34679;51.436;-2.518;2022-09-09T13:49:21;7.25;;;1.73;;
48859;SDS011;34679;51.436;-2.518;2022-09-09T13:51:51;2.75;;;1.40;;
48859;SDS011;34679;51.436;-2.518;2022-09-09T13:54:27;4.63;;;1.85;;
48859;SDS011;34679;51.436;-2.518;2022-09-09T13:56:55;4.57;;;1.58;;
48859;SDS011;34679;51.436;-2.518;2022-09-09T13:59:20;4.18;;;1.60;;
48859;SDS011;34679;51.436;-2.518;2022-09-09T14:01:46;4.78;;;1.83;;
48859;SDS011;34679;51.436;-2.518;2022-09-09T14:04:14;7.35;;;1.38;;
48859;SDS011;34679;51.436;-2.518;2022-09-09T14:06:40;6.88;;;1.48;;
48859;SDS011;34679;51.436;-2.518;2022-09-09T14:09:10;2.70;;;1.20;;
48859;SDS011;34679;51.436;-2.518;2022-09-09T14:11:37;6.60;;;2.15;;
48859;SDS011;34679;51.436;-2.518;2022-09-09T14:14:03;3.40;;;1.50;;
48859;SDS011;34679;51.436;-2.518;2022-09-09T14:16:30;7.32;;;1.75;;
48859;SDS011;34679;51.436;-2.518;2022-09-09T14:18:55;2.53;;;1.42;;
48859;SDS011;34679;51.436;-2.518;2022-09-09T14:21:22;5.43;;;2.08;;
48859;SDS011;34679;51.436;-2.518;2022-09-09T14:23:48;5.80;;;1.63;;
48859;SDS011;34679;51.436;-2.518;2022-09-09T14:26:14;3.90;;;1.85;;
48859;SDS011;34679;51.436;-2.518;2022-09-09T14:28:40;3.63;;;2.33;;
48859;SDS011;34679;51.436;-2.518;2022-09-09T14:31:06;3.40;;;1.50;;
48859;SDS011;34679;51.436;-2.518;2022-09-09T14:33:32;3.03;;;1.25;;
48859;SDS011;34679;51.436;-2.518;2022-09-09T14:35:59;2.53;;;1.27;;
48859;SDS011;34679;51.436;-2.518;2022-09-09T14:38:29;2.60;;;1.85;;
48859;SDS011;34679;51.436;-2.518;2022-09-09T14:40:59;2.80;;;1.10;;
48859;SDS011;34679;51.436;-2.518;2022-09-09T14:43:28;3.72;;;1.17;;
48859;SDS011;34679;51.436;-2.518;2022-09-09T14:45:57;1.27;;;1.17;;
48859;SDS011;34679;51.436;-2.518;2022-09-09T14:48:22;1.30;;;0.90;;
48859;SDS011;34679;51.436;-2.518;2022-09-09T14:50:48;4.05;;;1.50;;
48859;SDS011;34679;51.436;-2.518;2022-09-09T14:53:15;2.70;;;1.13;;
48859;SDS011;34679;51.436;-2.518;2022-09-09T14:55:41;1.67;;;1.20;;
48859;SDS011;34679;51.436;-2.518;2022-09-09T14:58:07;3.13;;;1.23;;
48859;SDS011;34679;51.436;-2.518;2022-09-09T15:00:33;2.67;;;1.33;;
48859;SDS011;34679;51.436;-2.518;2022-09-09T15:02:59;4.93;;;1.30;;
48859;SDS011;34679;51.436;-2.518;2022-09-09T15:05:24;3.50;;;1.08;;
48859;SDS011;34679;51.436;-2.518;2022-09-09T15:07:50;0.75;;;0.57;;
48859;SDS011;34679;51.436;-2.518;2022-09-09T15:10:16;2.40;;;0.70;;
48859;SDS011;34679;51.436;-2.518;2022-09-09T15:12:45;4.13;;;0.70;;
48859;SDS011;34679;51.436;-2.518;2022-09-09T15:15:11;1.63;;;0.60;;
48859;SDS011;34679;51.436;-2.518;2022-09-09T15:17:37;2.75;;;0.55;;
48859;SDS011;34679;51.436;-2.518;2022-09-09T15:20:03;3.08;;;0.60;;
48859;SDS011;34679;51.436;-2.518;2022-09-09T15:22:30;3.22;;;0.65;;
48859;SDS011;34679;51.436;-2.518;2022-09-09T15:24:56;3.58;;;0.55;;
48859;SDS011;34679;51.436;-2.518;2022-09-09T15:27:22;1.38;;;0.55;;
48859;SDS011;34679;51.436;-2.518;2022-09-09T15:29:48;4.22;;;0.85;;
48859;SDS011;34679;51.436;-2.518;2022-09-09T15:32:15;1.10;;;0.50;;
48859;SDS011;34679;51.436;-2.518;2022-09-09T15:34:40;2.17;;;0.80;;
48859;SDS011;34679;51.436;-2.518;2022-09-09T15:37:09;5.13;;;1.23;;
48859;SDS011;34679;51.436;-2.518;2022-09-09T15:39:37;4.55;;;1.35;;
48859;SDS011;34679;51.436;-2.518;2022-09-09T15:42:02;3.53;;;1.30;;
48859;SDS011;34679;51.436;-2.518;2022-09-09T15:44:28;4.57;;;0.88;;
48859;SDS011;34679;51.436;-2.518;2022-09-09T15:46:54;4.90;;;1.05;;
48859;SDS011;34679;51.436;-2.518;2022-09-09T15:49:20;3.25;;;0.82;;
48859;SDS011;34679;51.436;-2.518;2022-09-09T15:51:54;8.65;;;1.75;;
48859;SDS011;34679;51.436;-2.518;2022-09-09T15:54:22;8.93;;;1.13;;
48859;SDS011;34679;51.436;-2.518;2022-09-09T15:56:56;6.35;;;1.27;;
48859;SDS011;34679;51.436;-2.518;2022-09-09T15:59:23;4.43;;;1.05;;
48859;SDS011;34679;51.436;-2.518;2022-09-09T16:01:50;3.75;;;0.93;;
48859;SDS011;34679;51.436;-2.518;2022-09-09T16:04:19;3.13;;;1.00;;
48859;SDS011;34679;51.436;-2.518;2022-09-09T16:06:58;2.97;;;0.80;;
48859;SDS011;34679;51.436;-2.518;2022-09-09T16:09:25;6.18;;;1.15;;
48859;SDS011;34679;51.436;-2.518;2022-09-09T16:11:52;4.15;;;0.80;;
48859;SDS011;34679;51.436;-2.518;2022-09-09T16:14:18;4.10;;;0.90;;
48859;SDS011;34679;51.436;-2.518;2022-09-09T16:16:44;2.92;;;0.73;;
48859;SDS011;34679;51.436;-2.518;2022-09-09T16:19:11;2.50;;;0.80;;
48859;SDS011;34679;51.436;-2.518;2022-09-09T16:21:47;6.38;;;1.20;;
48859;SDS011;34679;51.436;-2.518;2022-09-09T16:24:15;4.25;;;0.80;;
48859;SDS011;34679;51.436;-2.518;2022-09-09T16:26:49;1.48;;;0.90;;
48859;SDS011;34679;51.436;-2.518;2022-09-09T16:29:17;2.95;;;1.05;;
48859;SDS011;34679;51.436;-2.518;2022-09-09T16:31:44;5.38;;;0.80;;
48859;SDS011;34679;51.436;-2.518;2022-09-09T16:34:11;4.28;;;0.80;;
48859;SDS011;34679;51.436;-2.518;2022-09-09T16:36:39;5.53;;;0.80;;
48859;SDS011;34679;51.436;-2.518;2022-09-09T16:39:07;7.43;;;0.80;;
48859;SDS011;34679;51.436;-2.518;2022-09-09T16:41:36;3.05;;;0.90;;
48859;SDS011;34679;51.436;-2.518;2022-09-09T16:44:04;2.90;;;0.90;;
48859;SDS011;34679;51.436;-2.518;2022-09-09T16:46:32;6.18;;;0.90;;
48859;SDS011;34679;51.436;-2.518;2022-09-09T16:49:00;3.20;;;0.75;;
48859;SDS011;34679;51.436;-2.518;2022-09-09T16:51:29;2.08;;;0.70;;
48859;SDS011;34679;51.436;-2.518;2022-09-09T16:54:18;5.93;;;1.20;;
48859;SDS011;34679;51.436;-2.518;2022-09-09T16:56:45;6.80;;;0.85;;
48859;SDS011;34679;51.436;-2.518;2022-09-09T16:59:13;3.95;;;1.17;;
48859;SDS011;34679;51.436;-2.518;2022-09-09T17:01:40;3.50;;;0.90;;
48859;SDS011;34679;51.436;-2.518;2022-09-09T17:04:12;4.10;;;1.13;;
48859;SDS011;34679;51.436;-2.518;2022-09-09T17:06:41;3.55;;;1.33;;
48859;SDS011;34679;51.436;-2.518;2022-09-09T17:09:10;1.85;;;1.17;;
48859;SDS011;34679;51.436;-2.518;2022-09-09T17:11:39;4.20;;;1.08;;
48859;SDS011;34679;51.436;-2.518;2022-09-09T17:14:05;3.97;;;1.98;;